createdAt,value
2022-11-23T04:35:03.603Z,95856.71
2022-11-23T04:40:06.475Z,95856.71
2022-11-23T04:45:08.614Z,95857.22
2022-11-23T04:50:10.283Z,95857.22
2022-11-23T04:55:12.072Z,95862.52
2022-11-23T05:00:15.058Z,95862.52
2022-11-23T05:05:16.935Z,95869.28
2022-11-23T05:10:18.694Z,95869.28
2022-11-23T05:15:20.544Z,95866.47
2022-11-23T05:20:22.266Z,95866.47
2022-11-23T05:25:24.262Z,95857.31
2022-11-23T05:30:26.042Z,95894.26
2022-11-23T05:35:27.863Z,95894.26
2022-11-23T05:40:29.631Z,95878.16
2022-11-23T05:45:31.357Z,95878.16
2022-11-23T05:50:33.251Z,95887.32
2022-11-23T05:55:35.028Z,95887.32
2022-11-23T06:00:36.940Z,95893.2
2022-11-23T06:05:38.606Z,95893.2
2022-11-23T06:10:40.398Z,95882.8
2022-11-23T06:15:42.064Z,95882.8
2022-11-23T06:20:43.843Z,95878.72
2022-11-23T06:25:45.588Z,95878.72
2022-11-23T06:30:47.400Z,95877.62
2022-11-23T06:35:52.160Z,95877.62
2022-11-23T06:40:57.171Z,95888.02
2022-11-23T06:45:59.195Z,95888.02
2022-11-23T06:51:01.395Z,95892.13
2022-11-23T06:56:03.612Z,95886.15
2022-11-23T07:01:06.649Z,95886.15
2022-11-23T07:06:09.457Z,95888.53
2022-11-23T07:11:11.580Z,95888.53
2022-11-23T07:16:13.274Z,95894.15
2022-11-23T07:21:15.005Z,95894.15
2022-11-23T07:26:16.833Z,95898.49
2022-11-23T07:31:18.654Z,95898.49
2022-11-23T07:36:20.458Z,95892.36
2022-11-23T07:41:22.200Z,95892.36
2022-11-23T07:46:24.013Z,95899.84
2022-11-23T07:51:25.714Z,95899.84
2022-11-23T07:56:27.810Z,95914.6
2022-11-23T08:01:29.537Z,95914.6
2022-11-23T08:06:31.304Z,95901.19
2022-11-23T08:11:33.049Z,95901.19
2022-11-23T08:16:34.908Z,95905.58
2022-11-23T08:21:36.820Z,95920.74
2022-11-23T08:26:38.683Z,95920.74
2022-11-23T08:31:40.705Z,95925.04
2022-11-23T08:36:42.723Z,95925.04
2022-11-23T08:41:44.572Z,95923.58
2022-11-23T08:46:46.322Z,95923.58
2022-11-23T08:51:50.971Z,95923.56
2022-11-23T08:56:53.156Z,95923.56
2022-11-23T09:01:55.093Z,95925.12
2022-11-23T09:06:57.184Z,95925.12
2022-11-23T09:11:58.912Z,95927.64
2022-11-23T09:17:01.185Z,95927.64
2022-11-23T09:22:02.996Z,95930.05
2022-11-23T09:27:04.832Z,95930.05
2022-11-23T09:32:06.660Z,95937.44
2022-11-23T09:37:08.473Z,95937.44
2022-11-23T09:52:36.252Z,95915.66
2022-11-23T09:57:40.296Z,95912.24
2022-11-23T10:02:42.206Z,95912.24
2022-11-23T10:07:49.721Z,95917.61
2022-11-23T10:12:55.743Z,95917.61
2022-11-23T10:18:06.133Z,95904.96
2022-11-23T10:23:12.284Z,95904.96
2022-11-23T10:28:15.565Z,95910.2
2022-11-23T10:33:21.848Z,95910.2
2022-11-23T10:38:25.829Z,95923.14
2022-11-23T10:43:29.571Z,95923.14
2022-11-23T10:48:33.944Z,95913.58
2022-11-23T10:53:35.780Z,95913.58
2022-11-23T10:58:42.285Z,95906.75
2022-11-23T11:03:44.159Z,95913.17
2022-11-23T11:08:49.242Z,95913.17
2022-11-23T11:13:51.065Z,95917.58
2022-11-23T11:18:53.209Z,95917.58
2022-11-23T11:23:59.046Z,95923.06
2022-11-23T11:29:01.777Z,95923.06
2022-11-23T11:34:08.626Z,95931.12
2022-11-23T11:44:20.747Z,95925.13
2022-11-23T11:49:25.085Z,95925.13
2022-11-23T11:54:32.588Z,95915.52
2022-11-23T11:59:37.659Z,95915.52
2022-11-23T12:04:41.463Z,95915.72
2022-11-23T12:09:46.323Z,95915.72
2022-11-23T12:14:48.088Z,95908.69
2022-11-23T12:19:54.804Z,95915.6
2022-11-23T12:40:24.272Z,95923.25
2022-11-23T12:45:32.420Z,95923.25
2022-11-23T12:50:38.625Z,95908.41
2022-11-23T13:00:48.960Z,95906.86
2022-11-23T13:06:00.131Z,95906.86
2022-11-23T13:16:19.508Z,95911.63
2022-11-23T13:26:28.881Z,95921.82
2022-11-23T13:31:31.891Z,95921.82
2022-11-23T13:57:00.043Z,95933.73
2022-11-23T14:12:18.403Z,95943.1
2022-11-23T14:32:50.549Z,95950.33
2022-11-23T14:38:00.988Z,95950.33
2022-11-23T14:43:03.480Z,95953.6
2022-11-23T14:53:14.941Z,95958.34
2022-11-23T14:58:17.021Z,95958.34
2022-11-23T15:08:28.080Z,95965.7
2022-11-23T15:13:31.111Z,95972.54
2022-11-23T15:18:33.672Z,95972.54
2022-11-23T15:23:36.288Z,95981.2
2022-11-23T15:28:38.145Z,95981.2
2022-11-23T15:33:39.888Z,95977.28
2022-11-23T15:38:41.733Z,95977.28
2022-11-23T15:48:49.493Z,95973.33
2022-11-23T15:53:52.651Z,95980.13
2022-11-23T15:58:55.166Z,95990.36
2022-11-23T16:03:57.867Z,95990.36
2022-11-23T16:08:59.725Z,95995.72
2022-11-23T16:14:12.365Z,95995.72
2022-11-23T16:19:21.535Z,95994.19
2022-11-23T16:24:25.523Z,95994.19
2022-11-23T16:29:30.841Z,96007.95
2022-11-23T16:34:34.662Z,96007.95
2022-11-23T16:39:37.103Z,96023.61
2022-11-23T16:44:43.741Z,96023.61
2022-11-23T16:49:46.404Z,96024.78
2022-11-23T16:54:49.414Z,96024.78
2022-11-23T16:59:53.480Z,96028.97
2022-11-23T17:04:55.998Z,96028.97
2022-11-23T17:09:58.543Z,96028.86
2022-11-23T17:15:00.801Z,96026.41
2022-11-23T17:20:05.859Z,96026.41
2022-11-23T17:30:20.900Z,96038.02
2022-11-23T17:35:23.947Z,96039.63
2022-11-23T17:40:27.038Z,96039.63
2022-11-23T17:45:29.968Z,96039.38
2022-11-23T17:50:32.603Z,96039.38
2022-11-23T17:55:36.703Z,96046
2022-11-23T18:00:39.312Z,96046
2022-11-23T18:05:41.955Z,96049.13
2022-11-23T18:10:45.048Z,96049.13
2022-11-23T18:15:48.875Z,96058.35
2022-11-23T18:20:52.052Z,96058.35
2022-11-23T18:25:58.472Z,96054.91
2022-11-23T18:31:02.103Z,96052.57
2022-11-23T18:36:07.090Z,96052.57
2022-11-23T18:41:10.110Z,96056.14
2022-11-23T18:46:14.892Z,96056.14
2022-11-23T18:51:18.533Z,96052.05
2022-11-23T18:56:21.669Z,96052.05
2022-11-23T19:01:26.139Z,96058.05
2022-11-23T19:06:31.735Z,96058.05
2022-11-23T19:11:35.952Z,96060.63
2022-11-23T19:16:39.559Z,96060.63
2022-11-23T19:21:43.824Z,96064.72
2022-11-23T19:26:46.745Z,96064.72
2022-11-23T19:31:51.698Z,96071.11
2022-11-23T19:36:56.310Z,96071.11
2022-11-23T19:41:59.242Z,96078.31
2022-11-23T19:52:11.829Z,96089.63
2022-11-23T19:57:16.020Z,96098.34
2022-11-23T20:02:23.339Z,96098.34
2022-11-23T20:07:28.247Z,96102.34
2022-11-23T20:12:30.901Z,96102.34
2022-11-23T20:17:35.119Z,96110.09
2022-11-23T20:22:38.385Z,96110.09
2022-11-23T20:27:41.922Z,96114.84
2022-11-23T20:32:44.999Z,96114.84
2022-11-23T20:37:51.536Z,96114.93
2022-11-23T20:42:55.862Z,96114.93
2022-11-23T20:47:59.617Z,96118.92
2022-11-23T20:53:03.681Z,96118.92
2022-11-23T20:58:08.191Z,96132.39
2022-11-23T21:03:10.929Z,96140.94
2022-11-23T21:08:13.504Z,96140.94
2022-11-23T21:13:15.729Z,96141.31
2022-11-23T21:18:17.842Z,96141.31
2022-11-23T21:23:19.760Z,96137.73
2022-11-23T21:28:22.389Z,96137.73
2022-11-23T21:33:24.106Z,96143.06
2022-11-23T21:38:26.475Z,96143.06
2022-11-23T21:43:28.367Z,96147.34
2022-11-23T21:48:30.084Z,96147.34
2022-11-23T21:53:32.494Z,96147.34
2022-11-23T21:58:34.256Z,96147.34
2022-11-23T22:03:36.214Z,96147.34
2022-11-23T22:08:39.748Z,96147.34
2022-11-23T22:13:42.340Z,96147.34
2022-11-23T22:18:44.664Z,96147.34
2022-11-23T22:23:46.552Z,96147.34
2022-11-23T22:28:49.341Z,96147.34
2022-11-23T22:33:52.259Z,96147.34
